Time;durP1;ratioP1;P1;durP2;ratioP2;P2;SDS_P1;SDS_P2;PMS_P1;PMS_P2;Temp;Humidity;BMP_temperature;BMP_pressure;BME280_temperature;BME280_humidity;BME280_pressure;Samples;Min_cycle;Max_cycle;Signal;HPM_P1;HPM_P2
2022/05/27 00:01:26;;;;;;;3.85;1.00;;;19.90;51.40;;;;;;5093942;28;20024;-72
2022/05/27 00:03:52;;;;;;;2.00;1.00;;;19.80;51.60;;;;;;5091616;28;20032;-72
2022/05/27 00:06:18;;;;;;;2.17;0.98;;;19.70;51.50;;;;;;5084229;28;20027;-72
2022/05/27 00:08:44;;;;;;;2.63;1.10;;;19.70;51.70;;;;;;5073032;28;20072;-72
2022/05/27 00:11:10;;;;;;;1.77;0.98;;;19.60;52.00;;;;;;5073585;28;20028;-72
2022/05/27 00:13:37;;;;;;;1.00;0.80;;;19.50;52.10;;;;;;5093754;28;20028;-72
2022/05/27 00:16:03;;;;;;;3.47;0.90;;;19.50;52.30;;;;;;5094684;28;20474;-72
2022/05/27 00:18:28;;;;;;;1.70;1.00;;;19.50;52.30;;;;;;5093618;28;20065;-72
2022/05/27 00:20:56;;;;;;;1.08;0.80;;;19.40;52.60;;;;;;5094978;28;20452;-72
2022/05/27 00:23:22;;;;;;;1.95;1.15;;;19.40;52.80;;;;;;5094137;28;20028;-72
2022/05/27 00:25:48;;;;;;;4.25;0.95;;;19.40;53.10;;;;;;5094042;28;20031;-73
2022/05/27 00:28:14;;;;;;;1.33;0.73;;;19.40;53.20;;;;;;5094457;28;20020;-72
2022/05/27 00:30:41;;;;;;;1.42;0.88;;;19.30;53.40;;;;;;5094486;28;20043;-72
2022/05/27 00:33:06;;;;;;;1.98;1.10;;;19.30;53.60;;;;;;5094119;28;20121;-72
2022/05/27 00:35:33;;;;;;;1.83;1.15;;;19.30;53.60;;;;;;5094388;28;20445;-72
2022/05/27 00:37:59;;;;;;;1.42;0.95;;;19.30;54.40;;;;;;5094237;28;20016;-73
2022/05/27 00:40:33;;;;;;;1.30;0.93;;;19.30;53.90;;;;;;5094362;28;20345;-73
2022/05/27 00:42:58;;;;;;;1.73;0.98;;;19.20;53.90;;;;;;5093070;28;20030;-72
2022/05/27 00:45:26;;;;;;;2.67;0.80;;;19.20;53.70;;;;;;5094321;28;20020;-72
2022/05/27 00:47:57;;;;;;;2.13;0.90;;;19.20;54.50;;;;;;5092844;28;20111;-73
2022/05/27 00:50:38;;;;;;;3.85;0.90;;;19.10;54.00;;;;;;5092909;28;20127;-72
2022/05/27 00:53:06;;;;;;;1.88;0.80;;;19.00;54.20;;;;;;5092905;28;20024;-72
2022/05/27 00:55:41;;;;;;;1.20;0.70;;;19.00;54.20;;;;;;5093271;28;20103;-72
2022/05/27 00:58:23;;;;;;;1.00;0.70;;;19.00;54.40;;;;;;5086521;28;20482;-72
2022/05/27 01:00:49;;;;;;;2.13;0.90;;;18.90;54.50;;;;;;5093937;28;20028;-73
2022/05/27 01:03:16;;;;;;;1.45;0.82;;;18.90;54.70;;;;;;5092276;28;20473;-73
2022/05/27 01:05:44;;;;;;;6.53;1.10;;;18.80;54.90;;;;;;5093515;28;20348;-73
2022/05/27 01:08:13;;;;;;;2.00;0.80;;;18.80;55.00;;;;;;5092109;28;20062;-72
2022/05/27 01:10:57;;;;;;;3.13;1.00;;;18.70;55.20;;;;;;5092115;28;20352;-72
2022/05/27 01:13:31;;;;;;;;;;;18.70;55.40;;;;;;5094043;28;20020;-73
2022/05/27 01:16:12;;;;;;;1.40;0.90;;;18.70;54.20;;;;;;5093406;28;19900;-72
2022/05/27 01:22:04;;;;;;;1.70;0.88;;;18.50;55.50;;;;;;5093308;28;20035;-73
2022/05/27 01:25:08;;;;;;;2.30;1.00;;;18.50;55.80;;;;;;5092191;28;20448;-72
2022/05/27 01:28:16;;;;;;;0.93;0.82;;;18.40;55.50;;;;;;5092270;28;20333;-72
2022/05/27 01:31:17;;;;;;;1.48;0.80;;;18.30;55.90;;;;;;5091169;28;20024;-73
2022/05/27 01:33:57;;;;;;;2.38;0.77;;;18.20;56.00;;;;;;5020823;28;20041;-72
2022/05/27 01:36:38;;;;;;;3.55;0.65;;;18.20;56.40;;;;;;5091411;28;20027;-72
2022/05/27 01:39:34;;;;;;;1.33;1.00;;;18.20;56.60;;;;;;5092027;28;20028;-72
2022/05/27 01:42:24;;;;;;;1.85;0.70;;;18.10;56.70;;;;;;5093295;28;20055;-72
2022/05/27 01:45:01;;;;;;;5.18;1.02;;;18.10;56.90;;;;;;5093002;28;20024;-72
2022/05/27 01:48:13;;;;;;;0.90;0.68;;;18.10;57.00;;;;;;5091942;28;20119;-72
2022/05/27 01:50:45;;;;;;;2.75;1.10;;;18.00;57.80;;;;;;5015968;28;20036;-72
2022/05/27 01:53:33;;;;;;;1.45;1.00;;;18.00;57.30;;;;;;5032969;28;20029;-72
2022/05/27 01:56:07;;;;;;;2.65;0.93;;;18.00;57.30;;;;;;5055746;28;20432;-72
2022/05/27 01:58:47;;;;;;;1.52;0.98;;;17.90;57.40;;;;;;5075848;28;20016;-72
2022/05/27 02:01:23;;;;;;;5.82;0.90;;;18.00;57.30;;;;;;5077061;28;20029;-72
2022/05/27 02:03:59;;;;;;;3.55;0.77;;;17.90;57.40;;;;;;5075408;28;20017;-72
2022/05/27 02:06:59;;;;;;;3.88;0.90;;;18.00;57.40;;;;;;5076967;28;20035;-72
2022/05/27 02:09:33;;;;;;;1.23;0.80;;;17.90;57.20;;;;;;5003742;28;20053;-72
2022/05/27 02:12:21;;;;;;;5.07;1.00;;;17.90;57.20;;;;;;5014405;28;20034;-72
2022/05/27 02:14:52;;;;;;;3.10;1.13;;;17.90;57.20;;;;;;4998166;28;20045;-72
2022/05/27 02:17:26;;;;;;;1.45;0.90;;;17.90;57.80;;;;;;5014595;28;20034;-72
2022/05/27 02:20:10;;;;;;;1.52;1.05;;;17.90;57.50;;;;;;5014507;28;20498;-73
2022/05/27 02:22:45;;;;;;;5.65;1.05;;;18.00;57.60;;;;;;5014513;28;20021;-73
2022/05/27 02:25:20;;;;;;;1.63;0.80;;;18.00;57.60;;;;;;5014539;28;20075;-72
2022/05/27 02:28:00;;;;;;;1.58;0.80;;;18.00;57.60;;;;;;5014285;28;20033;-72
2022/05/27 02:30:30;;;;;;;3.83;0.75;;;18.10;57.40;;;;;;5014275;28;20407;-72
2022/05/27 02:35:49;;;;;;;3.28;0.95;;;18.20;57.30;;;;;;5014312;28;20025;-72
2022/05/27 02:38:14;;;;;;;1.92;0.77;;;18.30;57.10;;;;;;4997660;28;20053;-73
2022/05/27 02:41:09;;;;;;;1.23;0.68;;;18.30;57.00;;;;;;4997568;28;20065;-72
2022/05/27 02:44:00;;;;;;;1.20;1.00;;;18.30;56.90;;;;;;5011249;28;20018;-72
2022/05/27 02:46:41;;;;;;;4.35;1.60;;;18.40;56.80;;;;;;5062173;28;20050;-72
2022/05/27 02:49:17;;;;;;;2.10;0.80;;;18.40;56.70;;;;;;5096473;28;20077;-72
2022/05/27 02:51:54;;;;;;;0.93;0.63;;;18.50;56.50;;;;;;5095022;28;20033;-72
2022/05/27 02:54:46;;;;;;;2.38;1.02;;;18.50;56.40;;;;;;5095075;28;20024;-72
2022/05/27 02:57:23;;;;;;;1.00;0.60;;;18.50;56.30;;;;;;5095341;28;20463;-72
2022/05/27 02:59:51;;;;;;;1.67;0.70;;;18.60;56.20;;;;;;5094887;28;20065;-72
2022/05/27 03:02:18;;;;;;;1.52;0.80;;;18.60;56.10;;;;;;5095616;28;20027;-72
2022/05/27 03:04:52;;;;;;;0.85;0.70;;;18.70;56.10;;;;;;5094817;28;20062;-72
2022/05/27 03:07:30;;;;;;;3.60;0.93;;;18.70;56.00;;;;;;5092454;28;20345;-72
2022/05/27 03:10:22;;;;;;;1.23;1.00;;;18.70;55.80;;;;;;5075693;28;20029;-72
2022/05/27 03:12:57;;;;;;;3.65;1.17;;;18.70;55.60;;;;;;5076028;28;20107;-72
2022/05/27 03:15:47;;;;;;;1.42;0.90;;;18.70;55.50;;;;;;5075965;28;20020;-73
2022/05/27 03:18:37;;;;;;;3.08;0.98;;;18.80;55.30;;;;;;5074325;28;20047;-72
2022/05/27 03:21:18;;;;;;;2.97;1.08;;;18.80;55.10;;;;;;5090448;28;20027;-72
2022/05/27 03:24:26;;;;;;;3.50;0.82;;;18.80;55.10;;;;;;5095766;28;20345;-72
2022/05/27 03:27:10;;;;;;;1.98;0.85;;;18.80;54.90;;;;;;5095386;28;20046;-72
2022/05/27 03:29:51;;;;;;;1.55;1.10;;;18.80;54.80;;;;;;5095652;28;20020;-72
2022/05/27 03:32:29;;;;;;;2.53;1.27;;;18.80;54.70;;;;;;5094226;28;20432;-72
2022/05/27 03:35:10;;;;;;;0.98;0.98;;;18.80;54.70;;;;;;5095177;28;20452;-72
2022/05/27 03:37:39;;;;;;;6.47;0.90;;;18.80;54.80;;;;;;5092518;28;20025;-72
2022/05/27 03:40:09;;;;;;;1.83;0.90;;;18.80;54.90;;;;;;5094054;28;20026;-72
2022/05/27 03:42:37;;;;;;;1.50;1.00;;;18.80;54.90;;;;;;5095494;28;20016;-72
2022/05/27 03:45:10;;;;;;;2.38;0.80;;;18.80;54.90;;;;;;5095203;28;20398;-72
2022/05/27 03:47:38;;;;;;;1.80;0.88;;;18.80;54.90;;;;;;5095156;28;20023;-72
2022/05/27 03:50:06;;;;;;;1.05;0.93;;;18.90;54.90;;;;;;5095269;28;20043;-72
2022/05/27 03:52:40;;;;;;;3.63;1.05;;;18.90;54.80;;;;;;5094018;28;20027;-72
2022/05/27 03:55:07;;;;;;;2.25;0.85;;;18.90;54.70;;;;;;5094024;28;20081;-72
2022/05/27 03:57:33;;;;;;;4.75;0.98;;;18.90;54.70;;;;;;5094587;28;20035;-72
2022/05/27 03:59:59;;;;;;;0.95;0.77;;;19.00;54.60;;;;;;5093890;28;20028;-73
2022/05/27 04:02:25;;;;;;;4.68;0.80;;;19.00;55.10;;;;;;5095467;28;20102;-72
2022/05/27 04:04:51;;;;;;;1.20;0.95;;;19.00;54.50;;;;;;5095364;28;20016;-72
2022/05/27 04:07:17;;;;;;;4.38;1.27;;;19.10;54.50;;;;;;5093237;28;20047;-73
2022/05/27 04:09:43;;;;;;;1.55;0.98;;;19.10;54.50;;;;;;5094947;28;20020;-72
2022/05/27 04:12:10;;;;;;;4.57;0.98;;;19.10;54.50;;;;;;5094708;28;20024;-72
2022/05/27 04:14:35;;;;;;;1.45;0.90;;;19.10;54.50;;;;;;5089372;28;20028;-72
2022/05/27 04:19:45;;;;;;;3.88;1.00;;;19.10;54.30;;;;;;5074253;28;20027;-72
2022/05/27 04:22:11;;;;;;;1.20;1.02;;;19.10;54.40;;;;;;5074423;28;20033;-72
2022/05/27 04:24:38;;;;;;;0.70;0.70;;;19.20;54.40;;;;;;5073126;28;20021;-72
2022/05/27 04:27:12;;;;;;;6.47;0.93;;;19.20;54.40;;;;;;5074323;28;20056;-72
2022/05/27 04:29:38;;;;;;;;;;;19.30;54.40;;;;;;5082929;28;20084;-72
2022/05/27 04:32:04;;;;;;;2.63;0.80;;;19.30;54.20;;;;;;5092978;28;19933;-72
2022/05/27 04:34:30;;;;;;;7.78;0.90;;;19.40;54.70;;;;;;5094430;28;20028;-72
2022/05/27 04:36:56;;;;;;;2.58;1.15;;;19.50;54.80;;;;;;5094147;28;20020;-72
2022/05/27 04:39:21;;;;;;;1.20;0.90;;;19.50;54.10;;;;;;5094393;28;20012;-72
2022/05/27 04:41:47;;;;;;;1.25;0.85;;;19.50;54.10;;;;;;5093036;28;20397;-72
2022/05/27 04:44:13;;;;;;;2.40;1.10;;;19.60;53.80;;;;;;5094318;28;20016;-72
2022/05/27 04:46:39;;;;;;;2.28;1.30;;;19.70;53.40;;;;;;5092204;28;20359;-72
2022/05/27 04:49:05;;;;;;;1.83;1.00;;;19.70;53.20;;;;;;5093870;28;20016;-72
2022/05/27 04:51:30;;;;;;;1.42;0.90;;;19.70;53.00;;;;;;5094055;28;20016;-72
2022/05/27 04:53:56;;;;;;;3.38;1.27;;;19.80;52.90;;;;;;5092867;28;20027;-72
2022/05/27 04:56:25;;;;;;;1.35;0.80;;;19.80;52.80;;;;;;5093863;28;20113;-72
2022/05/27 04:58:51;;;;;;;2.08;0.95;;;19.80;52.80;;;;;;5093758;28;20134;-72
2022/05/27 05:01:17;;;;;;;3.55;1.30;;;19.80;52.80;;;;;;5092291;28;20475;-72
2022/05/27 05:03:43;;;;;;;1.90;1.00;;;19.90;52.40;;;;;;5092732;28;20030;-72
2022/05/27 05:06:08;;;;;;;1.63;1.20;;;19.90;52.50;;;;;;5078613;28;20501;-72
2022/05/27 05:08:37;;;;;;;6.10;1.48;;;19.90;52.40;;;;;;5093377;28;20054;-72
2022/05/27 05:11:05;;;;;;;1.58;1.23;;;20.00;52.20;;;;;;5093514;28;20028;-72
2022/05/27 05:13:33;;;;;;;1.80;1.10;;;20.00;52.10;;;;;;5093885;28;20356;-72
2022/05/27 05:15:59;;;;;;;8.35;1.48;;;20.10;51.90;;;;;;5092387;28;20024;-72
2022/05/27 05:18:26;;;;;;;4.88;1.13;;;20.20;51.90;;;;;;5092177;28;20081;-72
2022/05/27 05:20:51;;;;;;;3.55;1.42;;;20.20;51.60;;;;;;5092447;28;20060;-72
2022/05/27 05:23:17;;;;;;;3.47;1.38;;;20.30;51.60;;;;;;5090742;28;20051;-72
2022/05/27 05:25:43;;;;;;;1.98;0.98;;;20.40;51.40;;;;;;5091421;28;20115;-72
2022/05/27 05:28:08;;;;;;;1.75;1.38;;;20.50;51.20;;;;;;5093596;28;20047;-72
2022/05/27 05:30:35;;;;;;;1.98;1.23;;;20.60;50.80;;;;;;5092132;28;20447;-72
2022/05/27 05:33:01;;;;;;;2.10;1.15;;;20.70;50.80;;;;;;5093570;28;20019;-72
2022/05/27 05:35:26;;;;;;;2.70;1.48;;;20.80;50.80;;;;;;5093495;28;20047;-72
2022/05/27 05:37:52;;;;;;;1.10;0.85;;;20.90;50.50;;;;;;5092204;28;20035;-72
2022/05/27 05:40:18;;;;;;;1.13;1.00;;;21.00;50.40;;;;;;5091718;28;20041;-72
2022/05/27 05:42:46;;;;;;;3.20;1.33;;;21.10;50.20;;;;;;5093351;28;20016;-72
2022/05/27 05:45:14;;;;;;;2.72;1.40;;;21.20;49.70;;;;;;5093382;28;20026;-73
2022/05/27 05:47:40;;;;;;;3.15;1.10;;;21.30;49.80;;;;;;5092037;28;20337;-73
2022/05/27 05:50:06;;;;;;;5.65;1.45;;;21.40;49.40;;;;;;5093563;28;20016;-73
2022/05/27 05:52:32;;;;;;;2.75;1.20;;;21.50;49.30;;;;;;5093372;28;20032;-73
2022/05/27 05:54:58;;;;;;;1.35;1.20;;;21.60;48.90;;;;;;5092997;28;20463;-73
2022/05/27 05:57:24;;;;;;;4.18;1.60;;;21.60;49.10;;;;;;5091428;28;20020;-73
2022/05/27 05:59:49;;;;;;;1.73;1.05;;;21.70;48.80;;;;;;5091960;28;20077;-72
2022/05/27 06:02:15;;;;;;;2.65;1.08;;;21.70;48.80;;;;;;5093141;28;20444;-72
2022/05/27 06:04:41;;;;;;;4.45;1.40;;;21.70;48.40;;;;;;5076723;28;20409;-72
2022/05/27 06:07:06;;;;;;;1.92;1.20;;;21.80;48.50;;;;;;5071460;28;20043;-73
2022/05/27 06:09:33;;;;;;;1.45;0.98;;;21.80;48.20;;;;;;5073372;28;20025;-72
2022/05/27 06:12:02;;;;;;;4.85;1.17;;;21.80;47.90;;;;;;5071670;28;20028;-72
2022/05/27 06:14:28;;;;;;;4.35;1.45;;;21.80;48.10;;;;;;5089759;28;20361;-72
2022/05/27 06:16:54;;;;;;;2.85;1.20;;;21.80;48.00;;;;;;5093224;28;20024;-73
2022/05/27 06:19:19;;;;;;;3.53;1.20;;;21.80;48.10;;;;;;5091958;28;20344;-72
2022/05/27 06:21:46;;;;;;;3.88;1.55;;;21.80;48.20;;;;;;5093240;28;20094;-73
2022/05/27 06:24:12;;;;;;;4.00;1.13;;;21.80;47.90;;;;;;5091885;28;20016;-73
2022/05/27 06:26:38;;;;;;;2.72;1.17;;;21.80;48.00;;;;;;5091868;28;20101;-72
2022/05/27 06:34:33;;;;;;;2.63;1.42;;;21.90;48.20;;;;;;5093158;28;20031;-72
2022/05/27 06:37:04;;;;;;;2.92;1.27;;;22.00;48.00;;;;;;5094167;28;20024;-72
2022/05/27 06:39:33;;;;;;;5.07;1.27;;;22.00;47.80;;;;;;5095594;28;20108;-73
2022/05/27 06:41:59;;;;;;;1.77;1.15;;;22.00;48.40;;;;;;5097052;28;20020;-72
2022/05/27 06:44:25;;;;;;;3.50;1.42;;;22.00;47.80;;;;;;5095441;28;20459;-73
2022/05/27 06:46:52;;;;;;;3.42;1.42;;;22.10;47.90;;;;;;5096245;28;20024;-72
2022/05/27 06:49:21;;;;;;;3.63;1.42;;;22.20;47.70;;;;;;5096594;28;20360;-73
2022/05/27 06:51:48;;;;;;;2.28;1.33;;;22.30;47.70;;;;;;5094990;28;20020;-72
2022/05/27 06:54:15;;;;;;;4.32;1.33;;;22.30;47.30;;;;;;5096629;28;20024;-73
2022/05/27 06:56:43;;;;;;;5.05;1.23;;;22.40;47.50;;;;;;5095143;28;20027;-73
2022/05/27 06:59:10;;;;;;;4.55;1.30;;;22.40;47.60;;;;;;5096711;28;20070;-72
2022/05/27 07:01:36;;;;;;;2.40;1.52;;;22.50;47.60;;;;;;5094068;28;20031;-72
2022/05/27 07:04:03;;;;;;;5.68;1.52;;;22.50;47.40;;;;;;5076121;28;20020;-73
2022/05/27 07:06:41;;;;;;;3.55;1.40;;;22.50;47.40;;;;;;5088537;28;20492;-72
2022/05/27 07:09:08;;;;;;;3.60;1.45;;;22.50;47.70;;;;;;5095899;28;20048;-72
2022/05/27 07:11:35;;;;;;;5.82;1.50;;;22.50;47.10;;;;;;5094809;28;20478;-72
2022/05/27 07:14:02;;;;;;;3.35;1.55;;;22.50;46.90;;;;;;5094878;28;20024;-72
2022/05/27 07:16:28;;;;;;;6.57;1.45;;;22.50;47.10;;;;;;5096115;28;20367;-73
2022/05/27 07:18:54;;;;;;;5.60;1.58;;;22.50;47.10;;;;;;5095448;28;20031;-72
2022/05/27 07:21:21;;;;;;;4.28;1.48;;;22.40;47.10;;;;;;5095821;28;20069;-73
2022/05/27 07:23:47;;;;;;;3.78;1.58;;;22.40;47.40;;;;;;5095720;28;20058;-72
2022/05/27 07:26:12;;;;;;;3.90;1.38;;;22.40;47.40;;;;;;5094347;28;20055;-72
2022/05/27 07:28:38;;;;;;;4.30;1.40;;;22.40;47.50;;;;;;5094600;28;20028;-73
2022/05/27 07:31:04;;;;;;;3.50;1.55;;;22.30;47.40;;;;;;5095454;28;20020;-73
2022/05/27 07:33:31;;;;;;;3.20;1.73;;;22.30;47.50;;;;;;5095744;28;20131;-73
2022/05/27 07:35:56;;;;;;;2.67;1.35;;;22.30;47.50;;;;;;5095729;28;20102;-72
2022/05/27 07:38:23;;;;;;;8.38;1.50;;;22.30;47.60;;;;;;5095347;28;20457;-72
2022/05/27 07:40:49;;;;;;;4.05;1.30;;;22.30;47.90;;;;;;5093869;28;20485;-72
2022/05/27 07:43:15;;;;;;;3.55;1.50;;;22.30;47.80;;;;;;5095876;28;20016;-73
2022/05/27 07:45:43;;;;;;;3.10;1.38;;;22.40;48.10;;;;;;5093970;28;20518;-72
2022/05/27 07:48:10;;;;;;;3.00;1.50;;;22.40;47.80;;;;;;5093268;28;20020;-73
2022/05/27 07:50:36;;;;;;;2.63;1.27;;;22.40;47.80;;;;;;5095439;28;20024;-72
2022/05/27 07:53:03;;;;;;;2.55;1.38;;;22.50;47.80;;;;;;5095088;28;20062;-72
2022/05/27 07:55:30;;;;;;;2.30;1.15;;;22.50;47.80;;;;;;5094094;28;20031;-72
2022/05/27 07:57:57;;;;;;;4.22;1.45;;;22.60;47.70;;;;;;5094715;28;20035;-72
2022/05/27 08:00:27;;;;;;;8.90;1.25;;;22.60;46.90;;;;;;5093661;28;20363;-72
2022/05/27 08:02:54;;;;;;;2.40;1.30;;;22.70;46.80;;;;;;5093630;28;20111;-72
2022/05/27 08:05:23;;;;;;;5.47;1.50;;;22.70;46.10;;;;;;5093737;28;20020;-72
2022/05/27 08:07:50;;;;;;;3.25;1.30;;;22.70;45.80;;;;;;5093409;28;20068;-72
2022/05/27 08:10:19;;;;;;;2.53;1.45;;;22.70;45.80;;;;;;5094748;28;20062;-72
2022/05/27 08:12:45;;;;;;;3.08;1.38;;;22.80;45.50;;;;;;5093751;28;20024;-72
2022/05/27 08:15:13;;;;;;;3.70;1.35;;;22.90;45.70;;;;;;5093300;28;20016;-72
2022/05/27 08:17:39;;;;;;;2.45;1.05;;;22.90;46.10;;;;;;5108808;28;20474;-72
2022/05/27 08:20:07;;;;;;;3.88;1.30;;;23.00;46.00;;;;;;5115062;27;20041;-72
2022/05/27 08:22:33;;;;;;;5.55;1.42;;;23.10;45.50;;;;;;5114945;28;20373;-72
2022/05/27 08:24:59;;;;;;;3.20;1.27;;;23.20;45.20;;;;;;5114949;28;20080;-72
2022/05/27 08:27:24;;;;;;;3.30;1.40;;;23.40;44.80;;;;;;5115234;28;20047;-72
2022/05/27 08:29:50;;;;;;;3.00;1.30;;;23.50;44.50;;;;;;5094415;28;20371;-72
2022/05/27 08:32:16;;;;;;;6.07;1.33;;;23.60;44.30;;;;;;5094091;28;20088;-72
2022/05/27 08:40:35;;;;;;;8.77;1.20;;;24.00;44.70;;;;;;5094421;28;19911;-72
2022/05/27 08:43:10;;;;;;;4.03;1.25;;;24.20;43.00;;;;;;5092765;28;20024;-72
2022/05/27 08:46:03;;;;;;;3.08;1.10;;;24.20;42.30;;;;;;5094180;28;20020;-72
2022/05/27 08:48:35;;;;;;;3.42;0.95;;;24.30;42.30;;;;;;5094169;28;20020;-72
2022/05/27 08:51:06;;;;;;;1.67;0.82;;;24.50;42.40;;;;;;5093115;28;20032;-72
2022/05/27 08:53:46;;;;;;;2.28;1.00;;;24.60;42.20;;;;;;5101386;28;20030;-72
2022/05/27 08:59:31;;;;;;;4.38;1.80;;;24.60;41.10;;;;;;5088218;28;20082;-72
2022/05/27 09:02:12;;;;;;;1.50;0.90;;;24.60;41.20;;;;;;5087209;28;20028;-72
2022/05/27 09:04:55;;;;;;;2.15;0.85;;;24.60;41.10;;;;;;5092797;28;20076;-72
2022/05/27 09:07:40;;;;;;;2.95;0.70;;;24.60;41.50;;;;;;5092057;28;20115;-72
2022/05/27 09:10:22;;;;;;;3.65;1.17;;;24.60;41.10;;;;;;5093579;28;20035;-72
2022/05/27 09:13:16;;;;;;;2.88;0.95;;;24.60;40.90;;;;;;5096437;28;20028;-73
2022/05/27 09:15:48;;;;;;;2.70;0.90;;;24.70;41.10;;;;;;5076548;28;20024;-73
2022/05/27 09:18:32;;;;;;;4.00;0.90;;;24.90;41.10;;;;;;5093792;28;20145;-72
2022/05/27 09:21:03;;;;;;;;;;;25.00;40.20;;;;;;5094334;28;20028;-72
2022/05/27 09:23:54;;;;;;;3.47;1.13;;;25.20;41.70;;;;;;5092278;28;19918;-73
2022/05/27 09:26:31;;;;;;;3.03;1.13;;;25.40;40.40;;;;;;5093494;28;20478;-73
2022/05/27 09:29:15;;;;;;;3.65;1.17;;;25.50;39.30;;;;;;5093692;28;20024;-73
2022/05/27 09:31:51;;;;;;;2.03;1.00;;;25.70;39.30;;;;;;5093685;28;20407;-73
2022/05/27 09:34:17;;;;;;;1.42;1.00;;;25.80;39.10;;;;;;5092296;28;20028;-72
2022/05/27 09:36:49;;;;;;;2.20;1.00;;;26.00;38.20;;;;;;5109155;28;20089;-72
2022/05/27 09:39:19;;;;;;;2.63;1.05;;;26.10;38.30;;;;;;5092616;28;20110;-73
2022/05/27 09:42:12;;;;;;;2.17;0.82;;;26.20;38.40;;;;;;5093177;28;20067;-73
2022/05/27 09:44:55;;;;;;;4.43;1.10;;;26.30;38.50;;;;;;5082150;28;20368;-72
2022/05/27 09:47:32;;;;;;;2.00;1.00;;;26.50;38.10;;;;;;5092698;28;20016;-72
2022/05/27 09:50:07;;;;;;;3.72;1.00;;;26.60;37.80;;;;;;5077639;28;20464;-72
2022/05/27 09:52:39;;;;;;;2.83;1.02;;;26.70;37.50;;;;;;5075771;28;20107;-73
2022/05/27 09:55:21;;;;;;;4.25;2.55;;;26.80;37.00;;;;;;5093695;28;20028;-73
2022/05/27 09:57:55;;;;;;;4.80;2.38;;;26.90;37.30;;;;;;5088280;28;20147;-73
2022/05/27 10:00:41;;;;;;;;;;;26.90;37.00;;;;;;5081728;28;20039;-73
2022/05/27 10:03:26;;;;;;;4.95;1.27;;;27.00;38.30;;;;;;5092897;28;19904;-73
2022/05/27 10:06:03;;;;;;;2.20;1.00;;;27.00;36.50;;;;;;5089424;28;20028;-72
2022/05/27 10:08:59;;;;;;;2.13;1.00;;;27.00;36.00;;;;;;5105748;28;20470;-73
2022/05/27 10:11:27;;;;;;;1.67;0.80;;;27.10;36.10;;;;;;5084408;28;20051;-72
2022/05/27 10:14:23;;;;;;;2.13;0.90;;;27.10;35.10;;;;;;5096999;28;20490;-72
2022/05/27 10:17:13;;;;;;;1.63;0.70;;;27.20;35.80;;;;;;5095626;28;20073;-72
2022/05/27 10:19:41;;;;;;;3.53;0.80;;;27.30;36.00;;;;;;5077275;28;20012;-73
2022/05/27 10:22:20;;;;;;;3.30;1.17;;;27.40;35.40;;;;;;5076886;28;20538;-72
2022/05/27 10:25:02;;;;;;;2.78;0.98;;;27.50;35.00;;;;;;5089261;28;20065;-71
2022/05/27 10:27:37;;;;;;;3.00;0.88;;;27.50;35.20;;;;;;5096977;28;20073;-72
2022/05/27 10:30:19;;;;;;;1.95;0.70;;;27.50;35.20;;;;;;5095610;28;20097;-73
2022/05/27 10:32:45;;;;;;;3.40;0.98;;;27.50;35.40;;;;;;5097061;28;20027;-73
2022/05/27 10:35:26;;;;;;;2.55;0.90;;;27.60;35.10;;;;;;5095044;28;20367;-73
2022/05/27 10:38:09;;;;;;;2.30;0.90;;;27.60;35.50;;;;;;5096739;28;20059;-73
2022/05/27 10:40:47;;;;;;;2.60;0.90;;;27.70;35.00;;;;;;5095537;28;20054;-73
2022/05/27 10:43:45;;;;;;;3.05;1.10;;;27.70;34.80;;;;;;5095482;28;20032;-73
2022/05/27 10:46:18;;;;;;;1.90;0.90;;;27.70;34.80;;;;;;5096650;28;20413;-74
2022/05/27 10:48:51;;;;;;;2.95;1.40;;;27.80;34.60;;;;;;5096370;28;20022;-73
2022/05/27 10:51:44;;;;;;;3.83;1.00;;;27.80;34.70;;;;;;5085699;28;20028;-73
2022/05/27 10:54:15;;;;;;;7.57;0.90;;;27.90;35.10;;;;;;5094769;28;20352;-72
2022/05/27 11:03:40;;;;;;;3.80;1.25;;;28.20;34.30;;;;;;5093735;28;20486;-72
2022/05/27 11:06:24;;;;;;;2.47;1.10;;;28.10;33.70;;;;;;5096346;28;20537;-72
2022/05/27 11:08:56;;;;;;;1.52;0.90;;;28.10;33.90;;;;;;5095067;28;20134;-72
2022/05/27 11:11:36;;;;;;;2.08;0.90;;;28.00;33.90;;;;;;5096310;28;20157;-72
2022/05/27 11:17:31;;;;;;;1.00;0.70;;;27.70;34.00;;;;;;5095836;28;20027;-72
2022/05/27 11:20:00;;;;;;;7.13;1.15;;;27.60;34.10;;;;;;5091933;28;20474;-72
2022/05/27 11:22:37;;;;;;;1.70;0.93;;;27.50;34.20;;;;;;5093719;28;20076;-72
2022/05/27 11:25:30;;;;;;;5.28;0.88;;;27.40;34.30;;;;;;5092466;28;20028;-72
2022/05/27 11:28:19;;;;;;;4.40;1.43;;;27.30;34.10;;;;;;5095085;28;20020;-72
2022/05/27 11:31:11;;;;;;;1.05;0.80;;;27.30;34.30;;;;;;5093206;28;20285;-72
2022/05/27 11:34:19;;;;;;;3.15;0.93;;;27.30;34.60;;;;;;5095863;28;20092;-72
2022/05/27 11:36:51;;;;;;;1.75;0.88;;;27.40;34.50;;;;;;5075935;28;20039;-72
2022/05/27 11:39:31;;;;;;;2.22;0.90;;;27.40;33.80;;;;;;5092304;28;20073;-72
2022/05/27 11:41:57;;;;;;;3.58;0.80;;;27.40;34.10;;;;;;5093222;28;20504;-72
2022/05/27 11:45:06;;;;;;;3.13;0.98;;;27.40;34.20;;;;;;5092802;28;20028;-72
2022/05/27 11:47:47;;;;;;;1.70;0.80;;;27.40;34.40;;;;;;5095402;28;20020;-72
2022/05/27 11:50:29;;;;;;;1.15;0.77;;;27.40;34.20;;;;;;5094151;28;20372;-72
2022/05/27 11:53:06;;;;;;;7.93;0.90;;;27.30;34.30;;;;;;5095243;28;20510;-72
2022/05/27 11:55:46;;;;;;;6.78;1.10;;;27.20;34.00;;;;;;5092780;28;20035;-72
2022/05/27 11:58:42;;;;;;;2.88;0.90;;;27.20;34.10;;;;;;5093987;28;20384;-72
2022/05/27 12:01:30;;;;;;;0.50;0.50;;;27.20;34.70;;;;;;5059041;28;20040;-72
2022/05/27 12:04:24;;;;;;;1.38;0.80;;;27.30;34.50;;;;;;5095225;28;20035;-73
2022/05/27 12:07:12;;;;;;;2.25;0.90;;;27.40;34.50;;;;;;5093419;28;20036;-73
2022/05/27 12:10:09;;;;;;;2.83;0.80;;;27.50;34.20;;;;;;5094700;28;20040;-73
2022/05/27 12:12:47;;;;;;;4.10;0.80;;;27.70;34.50;;;;;;5084828;28;20028;-73
2022/05/27 12:15:36;;;;;;;1.98;0.98;;;27.70;33.30;;;;;;5074461;28;20040;-73
2022/05/27 12:18:08;;;;;;;1.38;0.80;;;27.70;33.50;;;;;;5074437;28;20024;-73
2022/05/27 12:20:36;;;;;;;3.58;0.82;;;27.70;33.70;;;;;;5074491;28;20025;-72
2022/05/27 12:23:06;;;;;;;5.47;1.10;;;27.60;33.70;;;;;;5074425;28;20081;-72
2022/05/27 12:25:40;;;;;;;1.55;0.90;;;27.70;34.00;;;;;;5074510;28;20052;-73
2022/05/27 12:28:07;;;;;;;1.15;0.70;;;27.60;33.70;;;;;;5073184;28;20025;-73
2022/05/27 12:30:40;;;;;;;1.25;0.65;;;27.60;34.00;;;;;;5074005;28;20105;-73
2022/05/27 12:33:10;;;;;;;1.77;0.90;;;27.60;33.50;;;;;;5074068;28;20062;-73
2022/05/27 12:35:39;;;;;;;4.60;0.90;;;27.60;33.20;;;;;;5073966;28;20033;-73
2022/05/27 12:38:26;;;;;;;1.23;0.93;;;27.60;33.00;;;;;;5074184;28;20031;-73
2022/05/27 12:41:04;;;;;;;7.65;0.95;;;27.60;33.20;;;;;;5074265;28;20157;-73
2022/05/27 12:43:33;;;;;;;1.77;0.90;;;27.60;32.60;;;;;;5089737;28;20117;-73
2022/05/27 12:46:01;;;;;;;2.55;0.70;;;27.70;33.00;;;;;;5072756;28;20031;-73
2022/05/27 12:48:38;;;;;;;5.78;0.80;;;27.80;33.00;;;;;;5072708;28;20512;-73
2022/05/27 12:51:28;;;;;;;3.47;0.80;;;27.90;33.40;;;;;;5073921;28;20035;-73
2022/05/27 12:53:57;;;;;;;4.30;1.35;;;28.00;32.60;;;;;;5082332;28;20531;-73
2022/05/27 13:02:21;;;;;;;3.88;0.90;;;28.10;32.60;;;;;;5087640;28;20051;-73
2022/05/27 13:04:55;;;;;;;1.65;0.73;;;28.10;31.90;;;;;;5073773;28;20027;-73
2022/05/27 13:07:45;;;;;;;2.13;0.98;;;28.00;31.80;;;;;;5071990;28;20053;-72
2022/05/27 13:10:17;;;;;;;3.17;1.00;;;28.00;32.30;;;;;;5073453;28;20040;-73
2022/05/27 13:12:48;;;;;;;8.25;0.98;;;28.00;32.00;;;;;;5073759;28;20032;-73
2022/05/27 13:15:32;;;;;;;3.33;1.27;;;28.00;31.80;;;;;;5072036;28;20068;-73
2022/05/27 13:18:26;;;;;;;1.88;1.00;;;28.10;31.80;;;;;;5072133;28;20029;-73
2022/05/27 13:21:01;;;;;;;;;;;28.10;32.40;;;;;;5073736;28;20569;-73
2022/05/27 13:23:30;;;;;;;4.97;1.35;;;28.20;32.50;;;;;;5073287;28;19951;-73
2022/05/27 13:26:13;;;;;;;1.33;0.60;;;28.30;31.90;;;;;;5073354;28;20024;-73
2022/05/27 13:28:54;;;;;;;2.03;0.73;;;28.40;32.10;;;;;;5072206;28;20036;-73
2022/05/27 13:31:24;;;;;;;3.90;1.00;;;28.80;31.80;;;;;;5073252;28;20032;-73
2022/05/27 13:34:19;;;;;;;5.20;0.77;;;29.20;31.20;;;;;;5073396;28;20142;-73
2022/05/27 13:36:56;;;;;;;13.50;0.82;;;29.80;30.60;;;;;;5072092;28;20461;-73
2022/05/27 13:39:30;;;;;;;3.80;0.90;;;30.30;30.10;;;;;;5073352;28;20328;-73
2022/05/27 13:41:57;;;;;;;1.92;0.80;;;30.80;29.80;;;;;;5073391;28;20107;-73
2022/05/27 13:44:24;;;;;;;5.13;1.00;;;31.20;29.30;;;;;;5072020;28;20025;-73
2022/05/27 13:46:56;;;;;;;2.58;0.80;;;31.70;28.70;;;;;;5072552;28;20155;-73
2022/05/27 13:49:37;;;;;;;2.38;0.60;;;32.10;28.20;;;;;;5071687;28;20025;-73
2022/05/27 13:52:20;;;;;;;2.72;0.73;;;32.60;28.20;;;;;;5077840;28;20031;-73
2022/05/27 13:54:46;;;;;;;2.30;0.93;;;33.10;27.90;;;;;;5092111;28;20028;-73
2022/05/27 13:57:24;;;;;;;1.83;0.70;;;33.50;27.20;;;;;;5092946;28;20024;-73
2022/05/27 13:59:53;;;;;;;2.45;0.93;;;34.00;27.20;;;;;;5093377;28;20028;-73
2022/05/27 14:02:30;;;;;;;4.00;1.10;;;34.60;25.90;;;;;;5093247;28;20020;-73